Time;durP1;ratioP1;P1;durP2;ratioP2;P2;SDS_P1;SDS_P2;PMS_P1;PMS_P2;Temp;Humidity;BMP_temperature;BMP_pressure;BME280_temperature;BME280_humidity;BME280_pressure;Samples;Min_cycle;Max_cycle;Signal;HPM_P1;HPM_P2
2022/03/02 00:01:55;;;;;;;14.45;6.47;;;3.70;84.80;;;;;;4957282;28;20479;-57
2022/03/02 00:04:21;;;;;;;13.10;6.47;;;3.70;84.50;;;;;;4968425;28;20030;-60
2022/03/02 00:06:47;;;;;;;11.13;6.32;;;3.70;84.80;;;;;;4948065;28;20050;-59
2022/03/02 00:09:12;;;;;;;13.20;6.97;;;3.70;84.70;;;;;;4966116;28;20042;-57
2022/03/02 00:11:38;;;;;;;14.52;6.70;;;3.60;85.40;;;;;;4964705;28;20042;-57
2022/03/02 00:14:05;;;;;;;14.48;6.47;;;3.60;87.00;;;;;;4967425;28;20031;-59
2022/03/02 00:16:32;;;;;;;13.93;6.03;;;3.60;87.70;;;;;;4965232;28;20038;-57
2022/03/02 00:18:58;;;;;;;14.70;6.95;;;3.60;86.00;;;;;;4959392;28;20076;-59
2022/03/02 00:21:23;;;;;;;14.13;6.63;;;3.70;85.80;;;;;;4959988;28;20122;-59
2022/03/02 00:23:49;;;;;;;14.20;7.07;;;3.70;84.70;;;;;;4965390;28;20138;-57
2022/03/02 00:26:14;;;;;;;10.68;5.82;;;3.70;85.00;;;;;;4968443;28;20038;-56
2022/03/02 00:28:41;;;;;;;12.43;6.15;;;3.80;84.20;;;;;;4971199;28;20048;-57
2022/03/02 00:31:07;;;;;;;13.40;6.63;;;3.80;84.50;;;;;;4969842;28;20050;-57
2022/03/02 00:33:33;;;;;;;10.85;6.22;;;3.80;85.10;;;;;;4970017;28;20031;-55
2022/03/02 00:35:58;;;;;;;11.65;6.38;;;3.80;85.80;;;;;;4963522;28;20059;-56
2022/03/02 00:38:24;;;;;;;14.52;6.30;;;3.80;85.40;;;;;;4970907;28;20066;-58
2022/03/02 00:40:50;;;;;;;11.80;6.30;;;3.80;84.30;;;;;;4966841;28;20027;-57
2022/03/02 00:43:17;;;;;;;14.05;6.78;;;3.90;84.80;;;;;;4963975;28;20089;-57
2022/03/02 00:45:43;;;;;;;15.02;6.40;;;3.90;85.20;;;;;;4960739;28;20479;-58
2022/03/02 00:48:09;;;;;;;19.67;6.85;;;3.80;85.80;;;;;;4973528;28;20045;-58
2022/03/02 00:50:35;;;;;;;15.90;7.47;;;3.80;85.30;;;;;;4973259;28;20097;-58
2022/03/02 00:53:02;;;;;;;14.65;6.40;;;3.70;85.60;;;;;;4973333;28;20031;-59
2022/03/02 00:55:28;;;;;;;14.20;6.28;;;3.70;86.60;;;;;;4971656;28;20031;-58
2022/03/02 00:57:54;;;;;;;12.93;6.57;;;3.70;85.90;;;;;;4968147;28;20046;-59
2022/03/02 01:00:20;;;;;;;14.82;6.30;;;3.70;85.50;;;;;;4973041;28;20034;-56
2022/03/02 01:02:48;;;;;;;11.27;6.03;;;3.80;85.50;;;;;;4971636;28;20170;-58
2022/03/02 01:05:14;;;;;;;17.67;7.25;;;3.80;86.40;;;;;;4950437;28;20070;-57
2022/03/02 01:07:40;;;;;;;13.50;6.00;;;3.70;87.70;;;;;;4965985;28;20489;-58
2022/03/02 01:10:07;;;;;;;12.13;6.68;;;3.60;87.30;;;;;;4968140;28;20481;-56
2022/03/02 01:12:33;;;;;;;13.90;6.55;;;3.50;87.80;;;;;;4973272;28;20042;-55
2022/03/02 01:14:59;;;;;;;15.35;7.28;;;3.50;88.00;;;;;;4972947;28;20031;-59
2022/03/02 01:17:25;;;;;;;14.45;6.57;;;3.40;88.40;;;;;;4970440;28;20046;-57
2022/03/02 01:19:51;;;;;;;13.38;6.18;;;3.40;89.00;;;;;;4969508;28;20043;-58
2022/03/02 01:22:17;;;;;;;11.32;6.10;;;3.20;89.80;;;;;;4972743;28;20046;-58
2022/03/02 01:24:43;;;;;;;10.43;6.13;;;3.20;89.10;;;;;;4972894;28;20046;-56
2022/03/02 01:27:09;;;;;;;14.07;6.95;;;3.10;89.80;;;;;;4972275;28;20667;-54
2022/03/02 01:29:35;;;;;;;14.13;6.65;;;3.00;90.10;;;;;;4958154;28;20118;-59
2022/03/02 01:32:03;;;;;;;14.60;7.00;;;2.90;90.50;;;;;;4967296;28;20030;-58
2022/03/02 01:34:29;;;;;;;16.75;6.25;;;2.80;90.90;;;;;;4971056;28;20027;-56
2022/03/02 01:36:55;;;;;;;16.33;7.05;;;2.80;90.90;;;;;;4968245;28;20041;-58
2022/03/02 01:39:20;;;;;;;13.77;6.88;;;2.70;91.00;;;;;;4965753;28;20456;-56
2022/03/02 01:41:46;;;;;;;15.93;7.10;;;2.80;91.20;;;;;;4967119;28;20023;-58
2022/03/02 01:44:12;;;;;;;12.68;6.32;;;2.80;91.30;;;;;;4972357;28;20089;-57
2022/03/02 01:46:38;;;;;;;14.40;7.43;;;2.70;91.30;;;;;;4969372;28;20035;-58
2022/03/02 01:49:04;;;;;;;14.05;5.82;;;2.70;91.30;;;;;;4972922;28;20043;-58
2022/03/02 01:51:30;;;;;;;16.15;6.97;;;2.60;91.80;;;;;;4970515;28;20018;-57
2022/03/02 01:53:55;;;;;;;13.63;6.88;;;2.60;91.80;;;;;;4971820;28;20034;-59
2022/03/02 01:56:21;;;;;;;14.40;6.55;;;2.60;92.00;;;;;;4961569;28;20022;-57
2022/03/02 01:58:47;;;;;;;13.25;6.82;;;2.60;92.00;;;;;;4973510;28;20031;-56
2022/03/02 02:01:13;;;;;;;13.00;6.57;;;2.60;91.90;;;;;;4972112;28;20477;-56
2022/03/02 02:03:39;;;;;;;12.05;7.05;;;2.60;92.00;;;;;;4971526;28;20019;-56
2022/03/02 02:06:05;;;;;;;10.15;6.20;;;2.70;91.80;;;;;;4954047;28;20050;-55
2022/03/02 02:08:31;;;;;;;12.98;7.07;;;2.70;91.80;;;;;;4972660;28;20038;-50
2022/03/02 02:10:59;;;;;;;19.63;7.35;;;2.80;91.90;;;;;;4970112;28;20026;-57
2022/03/02 02:13:25;;;;;;;16.08;6.90;;;2.80;91.70;;;;;;4972764;28;20019;-57
2022/03/02 02:15:53;;;;;;;13.32;6.70;;;2.80;91.60;;;;;;4971460;28;20027;-50
2022/03/02 02:18:18;;;;;;;12.98;6.57;;;2.70;92.30;;;;;;4987533;28;20038;-53
2022/03/02 02:20:45;;;;;;;13.20;6.45;;;2.70;92.60;;;;;;4971013;28;20043;-53
2022/03/02 02:23:10;;;;;;;17.20;6.80;;;2.60;93.80;;;;;;4969615;28;20055;-57
2022/03/02 02:25:36;;;;;;;18.27;6.78;;;2.60;94.10;;;;;;4970261;28;20235;-54
2022/03/02 02:28:01;;;;;;;14.60;7.20;;;2.50;93.10;;;;;;4969967;28;20503;-57
2022/03/02 02:30:29;;;;;;;16.45;7.22;;;2.50;93.80;;;;;;4966473;28;20031;-55
2022/03/02 02:32:54;;;;;;;17.25;7.40;;;2.40;94.40;;;;;;4968116;28;20063;-55
2022/03/02 02:35:20;;;;;;;14.02;6.53;;;2.40;94.40;;;;;;4968675;28;20113;-59
2022/03/02 02:37:45;;;;;;;11.05;6.28;;;2.40;93.50;;;;;;4970799;28;20031;-57
2022/03/02 02:40:14;;;;;;;11.07;6.30;;;2.40;93.40;;;;;;4969198;28;20046;-57
2022/03/02 02:42:44;;;;;;;17.00;6.65;;;2.50;92.90;;;;;;4968496;28;20035;-56
2022/03/02 02:45:15;;;;;;;15.60;7.20;;;2.50;92.70;;;;;;4970185;28;20035;-56
2022/03/02 02:47:41;;;;;;;15.32;6.95;;;2.50;92.90;;;;;;4972252;28;20497;-58
2022/03/02 02:50:18;;;;;;;13.68;6.13;;;2.60;92.70;;;;;;4971841;28;20101;-56
2022/03/02 02:52:44;;;;;;;13.80;6.35;;;2.60;92.50;;;;;;4970408;28;20031;-60
2022/03/02 02:55:11;;;;;;;24.23;6.55;;;2.70;92.40;;;;;;4970815;28;20027;-57
2022/03/02 02:57:37;;;;;;;14.38;6.93;;;2.70;92.30;;;;;;4972039;28;20042;-60
2022/03/02 03:00:08;;;;;;;12.68;6.05;;;2.70;92.50;;;;;;4973060;28;20038;-58
2022/03/02 03:02:33;;;;;;;11.32;6.38;;;2.70;92.40;;;;;;4972168;28;20026;-58
2022/03/02 03:04:59;;;;;;;12.85;6.78;;;2.70;92.70;;;;;;4968426;28;20030;-58
2022/03/02 03:07:25;;;;;;;13.38;6.55;;;2.60;92.70;;;;;;4951457;28;20050;-58
2022/03/02 03:09:52;;;;;;;16.27;6.20;;;2.60;93.00;;;;;;4971924;28;20492;-57
2022/03/02 03:12:17;;;;;;;11.27;6.82;;;2.50;93.10;;;;;;4968907;28;20512;-59
2022/03/02 03:14:43;;;;;;;13.10;5.90;;;2.50;92.70;;;;;;4970587;28;20030;-60
2022/03/02 03:17:08;;;;;;;16.95;6.60;;;2.40;92.90;;;;;;4971084;28;20027;-58
2022/03/02 03:19:34;;;;;;;12.52;5.97;;;2.50;92.80;;;;;;4971222;28;20038;-57
2022/03/02 03:22:05;;;;;;;15.50;7.03;;;2.50;92.40;;;;;;4970847;28;20089;-58
2022/03/02 03:24:31;;;;;;;13.25;7.05;;;2.60;92.30;;;;;;4971271;28;20051;-57
2022/03/02 03:26:57;;;;;;;13.55;6.53;;;2.60;92.30;;;;;;4970548;28;20140;-55
2022/03/02 03:29:22;;;;;;;14.05;6.00;;;2.60;92.20;;;;;;4968056;28;20050;-56
2022/03/02 03:31:48;;;;;;;13.50;6.90;;;2.70;91.80;;;;;;4968218;28;20029;-58
2022/03/02 03:34:13;;;;;;;11.15;6.00;;;2.80;91.70;;;;;;4970173;28;20031;-57
2022/03/02 03:36:39;;;;;;;16.63;6.68;;;2.90;91.70;;;;;;4968239;28;20051;-54
2022/03/02 03:39:05;;;;;;;14.40;6.13;;;2.90;91.80;;;;;;4967174;28;20405;-58
2022/03/02 03:41:30;;;;;;;15.23;6.28;;;3.00;91.80;;;;;;4965225;28;20500;-56
2022/03/02 03:43:56;;;;;;;11.25;5.80;;;2.90;92.00;;;;;;4969183;28;20065;-58
2022/03/02 03:46:21;;;;;;;13.40;6.15;;;2.90;91.80;;;;;;4968882;28;20034;-59
2022/03/02 03:48:47;;;;;;;11.80;6.65;;;2.90;92.00;;;;;;4970479;28;20511;-58
2022/03/02 03:51:13;;;;;;;11.82;6.13;;;2.90;91.80;;;;;;4970437;28;20034;-59
2022/03/02 03:53:38;;;;;;;14.90;6.50;;;2.90;92.00;;;;;;4968262;28;20464;-59
2022/03/02 03:56:04;;;;;;;12.85;6.72;;;2.90;92.00;;;;;;4968117;28;20559;-58
2022/03/02 03:58:30;;;;;;;16.90;7.28;;;2.90;92.30;;;;;;4965684;28;20425;-56
2022/03/02 04:00:56;;;;;;;13.30;6.75;;;2.90;92.40;;;;;;4967479;28;20401;-58
2022/03/02 04:03:21;;;;;;;14.38;6.90;;;2.90;92.30;;;;;;4969560;28;20031;-58
2022/03/02 04:05:47;;;;;;;13.70;6.50;;;2.90;92.30;;;;;;4965614;28;20527;-57
2022/03/02 04:08:12;;;;;;;13.20;6.53;;;2.90;92.50;;;;;;4955547;28;20125;-58
2022/03/02 04:10:38;;;;;;;14.20;6.53;;;2.90;92.10;;;;;;4967388;28;20027;-54
2022/03/02 04:13:04;;;;;;;14.15;6.75;;;2.90;92.10;;;;;;4970323;28;20470;-57
2022/03/02 04:15:30;;;;;;;9.80;5.57;;;2.90;92.00;;;;;;4967935;28;20034;-59
2022/03/02 04:17:55;;;;;;;11.35;6.15;;;3.00;91.80;;;;;;4970274;28;20453;-58
2022/03/02 04:20:21;;;;;;;10.25;5.80;;;3.00;92.20;;;;;;4964614;28;20035;-59
2022/03/02 04:22:46;;;;;;;14.48;6.40;;;3.00;92.00;;;;;;4969218;28;20031;-60
2022/03/02 04:25:12;;;;;;;11.75;6.10;;;3.00;92.10;;;;;;4966929;28;20042;-59
2022/03/02 04:27:38;;;;;;;12.43;6.00;;;3.00;92.00;;;;;;4969073;28;20576;-59
2022/03/02 04:30:05;;;;;;;12.55;6.43;;;3.00;92.10;;;;;;4969575;28;20027;-60
2022/03/02 04:32:30;;;;;;;12.88;6.32;;;3.00;92.30;;;;;;4963332;28;20825;-59
2022/03/02 04:34:56;;;;;;;17.05;6.60;;;2.90;92.70;;;;;;4969117;28;20023;-57
2022/03/02 04:37:22;;;;;;;11.80;5.90;;;2.90;93.10;;;;;;4964606;28;20039;-60
2022/03/02 04:39:47;;;;;;;14.18;7.35;;;2.90;92.50;;;;;;4964143;28;20062;-56
2022/03/02 04:42:13;;;;;;;12.98;6.47;;;2.90;92.50;;;;;;4968691;28;20086;-58
2022/03/02 04:44:38;;;;;;;11.52;6.68;;;2.90;92.80;;;;;;4966561;28;20030;-58
2022/03/02 04:47:04;;;;;;;14.00;6.55;;;2.90;92.60;;;;;;4965377;28;20042;-59
2022/03/02 04:49:30;;;;;;;11.85;6.35;;;2.90;92.80;;;;;;4969417;28;20034;-59
2022/03/02 04:51:55;;;;;;;13.43;6.45;;;2.90;92.80;;;;;;4969226;28;20026;-59
2022/03/02 04:57:07;;;;;;;13.98;6.47;;;2.90;93.10;;;;;;4968080;28;20499;-59
2022/03/02 04:59:33;;;;;;;11.38;6.68;;;2.90;93.10;;;;;;4968845;28;20054;-59
2022/03/02 05:01:59;;;;;;;15.90;6.07;;;2.90;93.20;;;;;;4968331;28;20026;-59
2022/03/02 05:04:25;;;;;;;14.65;6.57;;;2.90;93.20;;;;;;4971526;28;20067;-54
2022/03/02 05:06:50;;;;;;;13.63;6.72;;;2.90;93.30;;;;;;4950374;28;20509;-55
2022/03/02 05:09:16;;;;;;;11.63;6.75;;;2.90;93.60;;;;;;4967420;28;20039;-57
2022/03/02 05:11:41;;;;;;;15.35;7.03;;;2.90;93.50;;;;;;4967675;28;20053;-59
2022/03/02 05:14:07;;;;;;;14.85;7.15;;;2.90;93.90;;;;;;4969377;28;20469;-60
2022/03/02 05:16:33;;;;;;;13.45;6.18;;;2.90;94.10;;;;;;4968747;28;20049;-58
2022/03/02 05:18:58;;;;;;;13.98;7.13;;;2.90;94.30;;;;;;4970196;28;20046;-58
2022/03/02 05:21:24;;;;;;;13.20;7.22;;;2.80;94.40;;;;;;4966797;28;20039;-55
2022/03/02 05:23:49;;;;;;;11.40;6.38;;;2.80;94.60;;;;;;4969729;28;20035;-58
2022/03/02 05:26:15;;;;;;;14.82;6.63;;;2.80;94.50;;;;;;4963372;28;20121;-58
2022/03/02 05:28:41;;;;;;;14.38;6.03;;;2.80;94.40;;;;;;4964881;28;20094;-57
2022/03/02 05:31:06;;;;;;;13.73;6.45;;;2.80;94.30;;;;;;4963719;28;20144;-58
2022/03/02 05:33:32;;;;;;;15.65;7.03;;;2.80;94.40;;;;;;4972389;28;20034;-60
2022/03/02 05:35:57;;;;;;;14.32;6.25;;;2.80;94.30;;;;;;4968358;28;20035;-58
2022/03/02 05:38:23;;;;;;;14.50;7.07;;;2.80;94.20;;;;;;4971771;28;20534;-58
2022/03/02 05:40:48;;;;;;;12.73;6.55;;;2.80;94.40;;;;;;4968555;28;20038;-57
2022/03/02 05:43:14;;;;;;;12.00;6.30;;;2.70;94.60;;;;;;4969621;28;20081;-56
2022/03/02 05:45:39;;;;;;;12.93;6.47;;;2.80;93.80;;;;;;4969843;28;20481;-58
2022/03/02 05:48:06;;;;;;;11.32;6.22;;;2.80;93.70;;;;;;4970619;28;20030;-58
2022/03/02 05:50:32;;;;;;;15.35;5.32;;;2.90;93.60;;;;;;4962894;28;20069;-58
2022/03/02 05:52:57;;;;;;;16.00;6.97;;;2.90;93.70;;;;;;4966467;28;20066;-58
2022/03/02 05:55:23;;;;;;;11.77;6.07;;;2.90;93.70;;;;;;4964720;28;20061;-60
2022/03/02 05:57:48;;;;;;;11.52;6.38;;;2.90;93.60;;;;;;4966271;28;20039;-56
2022/03/02 06:00:14;;;;;;;14.70;7.07;;;2.90;93.60;;;;;;4970617;28;20038;-59
2022/03/02 06:02:40;;;;;;;12.85;6.60;;;3.00;93.40;;;;;;4969289;28;20034;-58
2022/03/02 06:05:09;;;;;;;16.98;6.90;;;3.00;93.60;;;;;;4961972;28;20035;-58
2022/03/02 06:07:35;;;;;;;12.38;6.22;;;3.00;93.20;;;;;;4952858;28;20149;-57
2022/03/02 06:10:01;;;;;;;13.57;7.10;;;3.00;93.40;;;;;;4969091;28;20543;-57
2022/03/02 06:12:27;;;;;;;13.18;6.63;;;2.90;93.80;;;;;;4964998;28;20110;-60
2022/03/02 06:14:53;;;;;;;14.43;6.05;;;3.00;93.40;;;;;;4972550;28;20034;-56
2022/03/02 06:17:19;;;;;;;13.82;6.75;;;2.90;93.60;;;;;;4963901;28;20039;-57
2022/03/02 06:19:45;;;;;;;11.60;6.07;;;2.90;93.50;;;;;;4962568;28;20142;-59
2022/03/02 06:22:11;;;;;;;16.23;6.57;;;2.90;93.60;;;;;;4967276;28;20113;-60
2022/03/02 06:24:37;;;;;;;11.63;7.03;;;2.90;94.20;;;;;;4968640;28;20031;-59
2022/03/02 06:27:03;;;;;;;13.05;6.88;;;2.80;94.40;;;;;;4965489;28;20039;-58
2022/03/02 06:31:57;;;;;;;14.02;6.60;;;2.80;94.50;;;;;;4976848;28;20085;-59
2022/03/02 06:34:22;;;;;;;10.20;5.75;;;2.80;94.70;;;;;;4987688;28;20496;-59
2022/03/02 06:36:50;;;;;;;13.50;6.35;;;2.80;94.70;;;;;;4989595;28;20065;-62
2022/03/02 06:39:21;;;;;;;12.38;6.85;;;2.90;94.20;;;;;;4992356;28;20045;-61
2022/03/02 06:42:22;;;;;;;13.68;6.15;;;3.00;93.50;;;;;;4967033;28;20035;-59
2022/03/02 06:44:55;;;;;;;13.23;6.40;;;3.20;93.10;;;;;;4970751;28;20041;-60
2022/03/02 06:47:27;;;;;;;12.95;7.00;;;3.30;92.80;;;;;;4969445;28;20031;-61
2022/03/02 06:50:09;;;;;;;15.73;6.50;;;3.40;92.70;;;;;;4971900;28;21961;-61
2022/03/02 06:52:38;;;;;;;14.13;6.78;;;3.40;92.50;;;;;;4977207;28;20034;-61
2022/03/02 06:55:10;;;;;;;17.08;7.25;;;3.40;92.50;;;;;;4971647;28;20081;-61
2022/03/02 06:57:36;;;;;;;15.57;7.50;;;3.40;92.40;;;;;;4973249;28;20035;-60
2022/03/02 07:00:10;;;;;;;18.48;6.93;;;3.50;92.50;;;;;;4984482;28;20038;-60
2022/03/02 07:02:48;;;;;;;12.75;7.15;;;3.50;92.30;;;;;;4969104;28;20158;-59
2022/03/02 07:05:14;;;;;;;18.58;7.38;;;3.50;92.20;;;;;;4968547;28;20081;-61
2022/03/02 07:07:40;;;;;;;12.38;6.85;;;3.60;92.10;;;;;;4948256;28;20051;-58
2022/03/02 07:10:08;;;;;;;15.25;6.88;;;3.60;91.90;;;;;;4970640;28;20041;-60
2022/03/02 07:12:34;;;;;;;18.45;6.90;;;3.60;92.20;;;;;;4968547;28;20433;-58
2022/03/02 07:15:00;;;;;;;14.13;6.72;;;3.70;92.30;;;;;;4970929;28;20094;-59
2022/03/02 07:17:32;;;;;;;10.77;6.40;;;3.70;92.40;;;;;;4963761;28;20425;-58
2022/03/02 07:20:08;;;;;;;10.90;6.78;;;3.80;92.10;;;;;;4966154;28;20019;-58
2022/03/02 07:22:36;;;;;;;12.38;6.15;;;3.90;92.00;;;;;;4970849;28;20039;-59
2022/03/02 07:25:33;;;;;;;12.13;6.60;;;3.90;92.20;;;;;;4968336;28;20055;-58
2022/03/02 07:28:00;;;;;;;13.43;6.07;;;4.00;92.20;;;;;;4967015;28;20038;-56
2022/03/02 07:30:27;;;;;;;15.20;6.80;;;4.20;91.80;;;;;;4972166;28;20041;-58
2022/03/02 07:32:56;;;;;;;15.38;6.60;;;4.30;91.40;;;;;;4971405;28;20098;-58
2022/03/02 07:35:23;;;;;;;15.02;5.97;;;4.40;91.30;;;;;;4971648;28;20496;-59
2022/03/02 07:37:49;;;;;;;12.73;6.07;;;4.60;91.00;;;;;;4970582;28;20031;-60
2022/03/02 07:40:15;;;;;;;10.52;6.22;;;4.60;91.00;;;;;;4974542;28;20057;-59
2022/03/02 07:42:41;;;;;;;10.50;6.45;;;4.70;91.10;;;;;;4973412;28;20093;-57
2022/03/02 07:45:08;;;;;;;13.32;6.53;;;4.80;90.90;;;;;;4972207;28;20698;-60
2022/03/02 07:47:34;;;;;;;14.73;7.10;;;4.80;91.60;;;;;;4966589;28;20042;-59
2022/03/02 07:50:00;;;;;;;11.95;6.72;;;4.90;91.50;;;;;;4972679;28;20018;-56
2022/03/02 07:52:29;;;;;;;11.95;6.43;;;5.00;92.00;;;;;;4965526;28;20026;-59
2022/03/02 07:54:58;;;;;;;15.65;6.70;;;5.00;92.00;;;;;;4969310;28;20078;-59
2022/03/02 07:57:25;;;;;;;11.15;5.82;;;5.10;91.40;;;;;;4969900;28;20058;-59
2022/03/02 07:59:53;;;;;;;17.80;6.97;;;5.10;91.30;;;;;;4971371;28;20035;-59
2022/03/02 08:02:23;;;;;;;14.90;8.13;;;5.10;91.40;;;;;;4969247;28;20090;-60
2022/03/02 08:04:51;;;;;;;14.15;6.20;;;5.10;91.00;;;;;;4970257;28;20038;-61
2022/03/02 08:07:17;;;;;;;11.88;6.18;;;5.10;91.20;;;;;;4970937;28;20035;-59
2022/03/02 08:09:43;;;;;;;10.02;6.00;;;5.00;91.20;;;;;;4950790;28;20106;-60
2022/03/02 08:12:10;;;;;;;21.80;6.68;;;5.00;91.80;;;;;;4968640;28;20023;-58
2022/03/02 08:14:36;;;;;;;13.77;6.50;;;4.90;91.40;;;;;;4969208;28;20521;-59
2022/03/02 08:17:03;;;;;;;11.15;6.60;;;4.90;91.50;;;;;;4968862;28;20038;-59
2022/03/02 08:19:30;;;;;;;11.43;6.32;;;5.00;90.90;;;;;;4968683;28;20035;-60
2022/03/02 08:22:11;;;;;;;11.02;7.22;;;4.90;91.60;;;;;;4969624;28;20034;-60
2022/03/02 08:24:42;;;;;;;11.35;6.38;;;4.80;91.60;;;;;;4966492;28;20129;-59
2022/03/02 08:27:11;;;;;;;11.35;5.88;;;4.80;91.10;;;;;;4971853;28;20038;-58
2022/03/02 08:29:37;;;;;;;12.98;6.20;;;4.90;91.20;;;;;;4970307;28;20113;-60
2022/03/02 08:32:04;;;;;;;11.82;6.25;;;5.00;90.50;;;;;;4966652;28;20035;-60
2022/03/02 08:34:32;;;;;;;11.00;6.18;;;5.00;90.20;;;;;;4968937;28;20023;-60
2022/03/02 08:36:59;;;;;;;11.45;5.85;;;5.00;90.70;;;;;;4969241;28;20809;-63
2022/03/02 08:39:25;;;;;;;11.52;5.45;;;5.10;91.00;;;;;;4966565;28;20039;-59
2022/03/02 08:41:51;;;;;;;10.40;6.45;;;5.20;90.60;;;;;;4968630;28;20023;-61
2022/03/02 08:44:18;;;;;;;13.20;6.18;;;5.30;89.30;;;;;;4968304;28;20082;-59
2022/03/02 08:46:47;;;;;;;13.23;6.03;;;5.40;89.70;;;;;;4968815;28;20516;-59
2022/03/02 08:49:15;;;;;;;17.15;6.30;;;5.40;88.60;;;;;;4969854;28;20015;-61
2022/03/02 08:51:41;;;;;;;9.88;5.60;;;5.50;88.90;;;;;;4971360;28;20019;-59
2022/03/02 08:54:08;;;;;;;8.65;5.28;;;5.50;90.00;;;;;;4972569;28;20027;-60
2022/03/02 08:56:37;;;;;;;8.70;5.28;;;5.60;87.90;;;;;;4969611;28;20039;-60
2022/03/02 08:59:04;;;;;;;12.15;6.10;;;5.70;87.30;;;;;;4969632;28;20485;-60
2022/03/02 09:01:30;;;;;;;11.07;5.35;;;5.90;87.60;;;;;;4967057;28;20033;-60
2022/03/02 09:03:59;;;;;;;9.70;5.38;;;6.00;86.30;;;;;;4968724;28;20031;-60
2022/03/02 09:06:27;;;;;;;8.80;5.60;;;6.10;88.10;;;;;;4963048;28;20023;-60
2022/03/02 09:08:54;;;;;;;13.07;5.25;;;6.20;88.80;;;;;;4964333;28;20066;-60
2022/03/02 09:11:21;;;;;;;11.63;5.38;;;6.30;86.20;;;;;;4984510;28;20015;-60
2022/03/02 09:13:47;;;;;;;8.23;5.18;;;6.40;85.70;;;;;;4986015;28;20045;-58
2022/03/02 09:16:13;;;;;;;8.75;5.30;;;6.50;84.80;;;;;;4990880;28;20022;-59
2022/03/02 09:18:39;;;;;;;10.43;5.65;;;6.60;84.40;;;;;;4995651;28;20046;-60
2022/03/02 09:21:06;;;;;;;9.48;5.40;;;6.70;84.20;;;;;;4993076;28;20458;-60
2022/03/02 09:23:40;;;;;;;10.77;5.05;;;6.80;82.80;;;;;;4992844;28;20080;-60
2022/03/02 09:26:09;;;;;;;9.10;5.55;;;7.00;81.70;;;;;;4990978;28;20030;-60
2022/03/02 09:28:38;;;;;;;7.32;5.28;;;7.60;83.60;;;;;;4990210;28;20037;-59
2022/03/02 09:31:06;;;;;;;9.60;5.80;;;8.30;79.60;;;;;;4990450;28;20030;-60
2022/03/02 09:33:34;;;;;;;11.35;4.97;;;9.00;75.00;;;;;;4989014;28;20034;-61
2022/03/02 09:36:04;;;;;;;10.27;4.78;;;9.60;73.90;;;;;;4988751;28;20022;-61
2022/03/02 09:38:32;;;;;;;8.82;4.90;;;9.90;73.60;;;;;;4991002;28;20027;-61
2022/03/02 09:41:07;;;;;;;9.18;5.38;;;10.50;70.50;;;;;;4989345;28;20045;-59
2022/03/02 09:43:35;;;;;;;13.90;5.68;;;10.70;69.60;;;;;;4992325;28;20030;-60
2022/03/02 09:46:06;;;;;;;9.30;6.03;;;10.90;68.80;;;;;;4992268;28;20033;-61
2022/03/02 09:48:46;;;;;;;8.05;6.15;;;11.20;68.20;;;;;;4990382;28;20027;-60
2022/03/02 09:51:20;;;;;;;9.52;6.20;;;11.10;66.70;;;;;;4988949;28;20492;-60
2022/03/02 09:53:48;;;;;;;7.82;5.18;;;11.50;67.40;;;;;;4986525;28;20503;-61
2022/03/02 09:56:15;;;;;;;8.45;5.50;;;11.70;66.60;;;;;;4987741;28;20105;-59
2022/03/02 09:58:44;;;;;;;32.45;6.05;;;11.80;65.50;;;;;;4992869;28;20042;-60
2022/03/02 10:01:17;;;;;;;7.82;5.30;;;12.10;65.10;;;;;;4992010;28;20112;-61
2022/03/02 10:03:48;;;;;;;8.20;6.00;;;12.10;63.80;;;;;;4982944;28;20045;-60
2022/03/02 10:06:17;;;;;;;8.23;5.75;;;12.40;63.90;;;;;;4988689;28;20072;-60
2022/03/02 10:08:51;;;;;;;10.32;5.22;;;12.70;61.60;;;;;;4978103;28;20784;-60
2022/03/02 10:11:21;;;;;;;;;;;12.90;61.40;;;;;;4988582;28;20026;-61
2022/03/02 10:13:47;;;;;;;7.38;5.20;;;12.70;60.00;;;;;;4986686;28;19916;-57
2022/03/02 10:16:25;;;;;;;11.18;5.38;;;12.90;61.90;;;;;;4991636;28;20105;-60
2022/03/02 10:19:01;;;;;;;9.48;5.60;;;13.00;59.40;;;;;;4988461;28;20018;-59
2022/03/02 10:21:28;;;;;;;10.77;5.72;;;12.60;57.10;;;;;;4982875;28;20709;-60
2022/03/02 10:23:58;;;;;;;9.48;6.32;;;11.80;57.30;;;;;;4987203;28;20037;-60
2022/03/02 10:26:26;;;;;;;7.88;5.15;;;11.70;59.10;;;;;;4990459;28;20034;-60
2022/03/02 10:29:14;;;;;;;10.00;4.90;;;11.30;60.00;;;;;;4981036;28;20045;-60
2022/03/02 10:31:47;;;;;;;8.63;5.32;;;11.00;60.80;;;;;;4993781;28;20050;-60
2022/03/02 10:34:31;;;;;;;8.27;4.63;;;10.90;61.90;;;;;;4988538;28;20030;-59
2022/03/02 10:37:37;;;;;;;8.75;5.15;;;10.90;60.50;;;;;;4991433;28;20026;-60
2022/03/02 10:40:18;;;;;;;9.35;5.10;;;10.90;62.00;;;;;;4960268;28;20038;-59
2022/03/02 10:42:57;;;;;;;7.90;4.65;;;10.80;60.10;;;;;;4985487;28;20547;-60
2022/03/02 10:45:41;;;;;;;10.77;5.20;;;10.60;61.60;;;;;;4988826;28;20027;-60
2022/03/02 10:48:32;;;;;;;9.07;5.18;;;10.60;61.60;;;;;;4991233;28;20026;-60
2022/03/02 10:50:58;;;;;;;18.73;5.47;;;10.60;60.40;;;;;;4991200;28;20369;-60
2022/03/02 10:53:26;;;;;;;7.53;4.57;;;10.60;62.10;;;;;;4991163;28;20030;-60
2022/03/02 10:55:56;;;;;;;10.52;5.03;;;10.60;60.30;;;;;;4982554;28;20026;-59
2022/03/02 10:58:25;;;;;;;13.25;4.90;;;10.50;60.00;;;;;;4982214;28;20497;-60
2022/03/02 11:00:51;;;;;;;7.65;4.95;;;10.40;60.90;;;;;;4991388;28;20032;-59
2022/03/02 11:03:18;;;;;;;13.68;5.35;;;10.50;61.00;;;;;;4981227;28;20106;-60
2022/03/02 11:05:44;;;;;;;10.05;5.03;;;10.60;62.70;;;;;;4989111;28;20030;-60
2022/03/02 11:08:10;;;;;;;7.55;5.05;;;10.50;60.10;;;;;;4991105;28;20027;-59
2022/03/02 11:10:40;;;;;;;10.30;4.47;;;10.40;60.30;;;;;;4966597;28;20045;-58
2022/03/02 11:13:12;;;;;;;8.80;5.03;;;10.30;59.10;;;;;;4986530;28;20502;-60
2022/03/02 11:15:52;;;;;;;8.48;4.88;;;10.30;59.80;;;;;;4981832;28;20058;-59
2022/03/02 11:18:30;;;;;;;9.15;4.88;;;10.30;59.70;;;;;;4988084;28;20049;-59
2022/03/02 11:21:01;;;;;;;13.50;4.88;;;10.40;60.90;;;;;;4984557;28;20577;-60
2022/03/02 11:23:27;;;;;;;8.30;4.90;;;10.40;61.10;;;;;;4983530;28;20030;-59
2022/03/02 11:25:57;;;;;;;12.80;5.60;;;10.50;60.70;;;;;;4982245;28;20093;-61
2022/03/02 11:28:24;;;;;;;13.02;6.68;;;10.50;60.20;;;;;;4985169;28;20026;-60
2022/03/02 11:30:51;;;;;;;9.73;4.90;;;10.40;58.40;;;;;;4983997;28;20474;-62
2022/03/02 11:33:23;;;;;;;7.05;4.72;;;10.30;58.60;;;;;;4986260;28;20037;-60
2022/03/02 11:35:48;;;;;;;9.70;5.38;;;10.10;58.40;;;;;;4989743;28;20026;-60
2022/03/02 11:38:20;;;;;;;6.82;4.80;;;10.00;58.80;;;;;;4988011;28;20037;-59
2022/03/02 11:40:47;;;;;;;7.88;4.88;;;10.00;58.50;;;;;;4990229;28;20121;-60
2022/03/02 11:43:28;;;;;;;8.98;5.28;;;9.90;57.80;;;;;;4998163;28;20031;-60
2022/03/02 11:45:58;;;;;;;9.73;5.43;;;10.00;59.20;;;;;;4981457;28;20034;-60
2022/03/02 11:48:27;;;;;;;8.63;4.20;;;10.00;58.90;;;;;;5003757;28;20037;-59
2022/03/02 11:51:03;;;;;;;10.93;5.57;;;9.90;58.20;;;;;;4998021;28;20026;-59
2022/03/02 11:53:38;;;;;;;10.05;5.25;;;9.90;58.80;;;;;;4988420;28;20030;-59
2022/03/02 11:56:06;;;;;;;9.88;4.68;;;10.00;59.70;;;;;;4984938;28;20552;-60
2022/03/02 11:58:57;;;;;;;8.88;5.10;;;9.90;59.10;;;;;;4989780;28;20499;-60
2022/03/02 12:01:24;;;;;;;6.88;4.40;;;10.10;58.10;;;;;;4985521;28;20042;-60
2022/03/02 12:04:03;;;;;;;9.07;4.78;;;10.10;59.50;;;;;;4987156;28;20026;-59
2022/03/02 12:06:38;;;;;;;7.70;4.15;;;10.10;57.30;;;;;;4989495;28;20046;-59
2022/03/02 12:09:04;;;;;;;7.82;4.90;;;10.20;58.80;;;;;;4988001;28;20037;-59
2022/03/02 12:11:36;;;;;;;9.35;5.30;;;10.20;60.10;;;;;;4968820;28;20050;-61
2022/03/02 12:14:09;;;;;;;8.88;4.72;;;10.20;59.50;;;;;;4988918;28;20515;-60
2022/03/02 12:16:40;;;;;;;8.60;4.97;;;10.30;61.00;;;;;;4985816;28;20056;-60
2022/03/02 12:19:21;;;;;;;13.07;5.68;;;10.30;60.30;;;;;;4989868;28;20026;-60
2022/03/02 12:21:47;;;;;;;11.35;4.68;;;10.30;60.50;;;;;;4986726;28;20046;-58
2022/03/02 12:24:18;;;;;;;8.02;4.82;;;10.30;59.30;;;;;;4988164;28;20042;-60
2022/03/02 12:26:49;;;;;;;10.63;5.45;;;10.30;60.10;;;;;;4989055;28;20023;-59
2022/03/02 12:29:16;;;;;;;8.02;4.07;;;10.30;59.90;;;;;;4988292;28;20034;-60
2022/03/02 12:31:44;;;;;;;8.63;4.97;;;10.30;59.60;;;;;;4985117;28;20034;-58
2022/03/02 12:34:14;;;;;;;7.00;5.05;;;10.20;58.50;;;;;;4989256;28;20022;-59
2022/03/02 12:36:42;;;;;;;7.55;4.78;;;10.20;59.70;;;;;;4984220;28;20477;-59
2022/03/02 12:39:08;;;;;;;7.35;4.63;;;10.20;59.50;;;;;;4989158;28;20084;-60
2022/03/02 12:41:36;;;;;;;12.07;6.22;;;10.20;60.20;;;;;;4987523;28;20026;-60
2022/03/02 12:44:03;;;;;;;7.65;4.65;;;10.20;61.30;;;;;;4986330;28;20068;-60
2022/03/02 12:46:28;;;;;;;8.05;4.57;;;10.30;61.50;;;;;;4986285;28;20548;-58
2022/03/02 12:48:55;;;;;;;14.95;5.60;;;10.30;61.00;;;;;;4985164;28;20065;-59
2022/03/02 12:51:28;;;;;;;9.25;5.20;;;10.30;61.30;;;;;;4983028;28;20023;-60
2022/03/02 12:53:54;;;;;;;8.95;5.82;;;10.30;61.80;;;;;;4986848;28;20108;-60
2022/03/02 12:56:20;;;;;;;7.80;4.97;;;10.30;61.00;;;;;;4986919;28;20053;-61
2022/03/02 12:58:45;;;;;;;6.97;5.47;;;10.30;61.10;;;;;;4997009;28;20065;-60